Time;durP1;ratioP1;P1;durP2;ratioP2;P2;SDS_P1;SDS_P2;PMS_P1;PMS_P2;Temp;Humidity;BMP_temperature;BMP_pressure;BME280_temperature;BME280_humidity;BME280_pressure;Samples;Min_cycle;Max_cycle;Signal;HPM_P1;HPM_P2
2023/04/06 00:01:45;;;;;;;12.82;8.08;;;;;;;7.82;100.00;99685.70;1738680;82;21049;-66
2023/04/06 00:04:16;;;;;;;12.93;7.70;;;;;;;7.81;100.00;99683.50;1738410;82;20997;-67
2023/04/06 00:06:45;;;;;;;15.30;8.63;;;;;;;7.80;100.00;99672.75;1738445;82;21100;-66
2023/04/06 00:09:16;;;;;;;13.60;8.18;;;;;;;7.79;100.00;99674.64;1738214;82;21033;-66
2023/04/06 00:11:46;;;;;;;12.70;8.10;;;;;;;7.79;100.00;99678.73;1738440;82;21080;-67
2023/04/06 00:14:17;;;;;;;13.55;8.20;;;;;;;7.81;100.00;99681.29;1738385;82;21069;-66
2023/04/06 00:16:46;;;;;;;14.20;8.03;;;;;;;7.83;100.00;99673.75;1738350;82;21100;-67
2023/04/06 00:19:15;;;;;;;14.60;8.43;;;;;;;7.84;100.00;99664.02;1738332;82;21072;-67
2023/04/06 00:21:45;;;;;;;13.58;8.43;;;;;;;7.86;100.00;99661.93;1738617;82;21033;-67
2023/04/06 00:24:14;;;;;;;12.60;7.78;;;;;;;7.87;100.00;99659.52;1724421;82;21045;-68
2023/04/06 00:26:43;;;;;;;12.23;7.90;;;;;;;7.89;100.00;99666.98;1738309;82;21063;-66
2023/04/06 00:29:12;;;;;;;12.65;8.33;;;;;;;7.90;100.00;99662.38;1738555;82;21013;-66
2023/04/06 00:31:42;;;;;;;14.90;8.40;;;;;;;7.89;100.00;99660.17;1738618;82;20993;-66
2023/04/06 00:34:11;;;;;;;12.85;7.78;;;;;;;7.90;100.00;99668.67;1738258;82;21057;-66
2023/04/06 00:36:40;;;;;;;12.00;7.90;;;;;;;7.91;100.00;99664.06;1738276;82;20990;-67
2023/04/06 00:39:10;;;;;;;13.38;8.03;;;;;;;7.91;100.00;99664.91;1732472;82;21029;-69
2023/04/06 00:41:40;;;;;;;13.10;7.72;;;;;;;7.92;100.00;99652.95;1723451;82;21484;-67
2023/04/06 00:44:09;;;;;;;13.28;7.78;;;;;;;7.93;100.00;99647.82;1718536;83;21002;-69
2023/04/06 00:46:38;;;;;;;13.10;8.13;;;;;;;7.94;100.00;99659.05;1713843;83;21030;-69
2023/04/06 00:49:09;;;;;;;14.33;8.20;;;;;;;7.95;100.00;99659.38;1713466;82;21049;-69
2023/04/06 00:51:38;;;;;;;14.83;8.15;;;;;;;7.97;100.00;99663.78;1713581;82;21026;-71
2023/04/06 00:54:09;;;;;;;12.35;7.95;;;;;;;7.98;100.00;99656.77;1713464;82;21098;-68
2023/04/06 00:56:39;;;;;;;12.30;7.70;;;;;;;7.99;100.00;99653.00;1713600;82;21047;-67
2023/04/06 00:59:09;;;;;;;12.98;7.85;;;;;;;8.00;100.00;99653.32;1713529;84;21026;-67
2023/04/06 01:01:40;;;;;;;12.10;7.90;;;;;;;7.99;100.00;99652.16;1713320;83;21098;-67
2023/04/06 01:04:12;;;;;;;12.43;7.67;;;;;;;7.98;100.00;99647.22;1712780;83;21416;-66
2023/04/06 01:06:43;;;;;;;13.32;7.92;;;;;;;8.01;100.00;99654.16;1713752;83;21081;-66
2023/04/06 01:09:13;;;;;;;14.15;8.40;;;;;;;8.01;100.00;99648.70;1713657;84;20998;-67
2023/04/06 01:11:43;;;;;;;14.53;8.30;;;;;;;8.00;100.00;99644.30;1713987;83;21050;-66
2023/04/06 01:14:14;;;;;;;13.03;8.20;;;;;;;8.01;100.00;99641.89;1716024;83;21015;-64
2023/04/06 01:16:48;;;;;;;12.93;8.00;;;;;;;8.00;100.00;99639.68;1716929;83;21090;-68
2023/04/06 01:19:20;;;;;;;11.78;7.90;;;;;;;8.02;100.00;99644.41;1716651;84;21023;-67
2023/04/06 01:21:53;;;;;;;15.25;9.15;;;;;;;8.02;100.00;99638.12;1716618;82;21057;-67
2023/04/06 01:24:24;;;;;;;13.40;9.00;;;;;;;8.03;100.00;99637.08;1711977;82;21098;-67
2023/04/06 01:27:13;;;;;;;14.70;8.10;;;;;;;8.03;100.00;99624.80;1650543;87;21036;-66
2023/04/06 01:29:48;;;;;;;13.38;8.38;;;;;;;8.03;100.00;99635.71;1649071;87;21103;-68
2023/04/06 01:32:19;;;;;;;13.93;8.50;;;;;;;8.02;100.00;99634.87;1671587;84;21027;-68
2023/04/06 01:34:51;;;;;;;18.25;9.08;;;;;;;8.05;100.00;99629.53;1698544;83;21485;-68
2023/04/06 01:37:20;;;;;;;13.98;8.68;;;;;;;8.05;100.00;99637.20;1698230;84;21062;-68
2023/04/06 01:39:50;;;;;;;14.63;9.15;;;;;;;8.06;100.00;99627.13;1698203;84;20999;-67
2023/04/06 01:42:21;;;;;;;15.88;8.88;;;;;;;8.06;100.00;99632.06;1700695;83;21025;-70
2023/04/06 01:44:50;;;;;;;15.50;8.93;;;;;;;8.09;100.00;99633.55;1702960;84;21119;-69
2023/04/06 01:47:20;;;;;;;16.05;9.25;;;;;;;8.09;100.00;99633.55;1737879;82;21013;-69
2023/04/06 01:49:50;;;;;;;17.92;9.30;;;;;;;8.11;100.00;99631.45;1738458;82;21122;-67
2023/04/06 01:52:20;;;;;;;17.73;9.48;;;;;;;8.13;100.00;99628.01;1738410;82;21436;-68
2023/04/06 01:54:53;;;;;;;17.17;9.15;;;;;;;8.15;100.00;99622.67;1746343;82;21068;-68
2023/04/06 01:57:25;;;;;;;15.75;9.00;;;;;;;8.17;100.00;99622.47;1743778;82;21111;-69
2023/04/06 01:59:58;;;;;;;14.87;9.00;;;;;;;8.21;100.00;99621.02;1745825;82;21463;-65
2023/04/06 02:02:34;;;;;;;16.95;9.68;;;;;;;8.21;100.00;99623.23;1741160;82;21052;-66
2023/04/06 02:05:06;;;;;;;16.17;9.43;;;;;;;8.22;100.00;99615.36;1738033;82;21065;-65
2023/04/06 02:07:36;;;;;;;18.60;9.60;;;;;;;8.25;100.00;99614.12;1738521;82;21498;-66
2023/04/06 02:10:13;;;;;;;16.25;9.55;;;;;;;8.26;100.00;99605.73;1738492;82;21461;-64
2023/04/06 02:12:44;;;;;;;17.35;10.15;;;;;;;8.28;100.00;99617.81;1738580;82;21001;-67
2023/04/06 02:15:15;;;;;;;16.60;9.73;;;;;;;8.29;100.00;99609.94;1738274;82;21029;-66
2023/04/06 02:17:46;;;;;;;16.00;9.70;;;;;;;8.30;100.00;99609.42;1738788;82;21092;-66
2023/04/06 02:20:15;;;;;;;15.70;8.85;;;;;;;8.31;100.00;99618.77;1738683;82;21025;-67
2023/04/06 02:22:46;;;;;;;17.65;9.78;;;;;;;8.31;100.00;99616.03;1738364;82;21021;-68
2023/04/06 02:25:16;;;;;;;15.85;9.55;;;;;;;8.32;100.00;99608.69;1738471;82;21536;-68
2023/04/06 02:27:46;;;;;;;18.48;9.78;;;;;;;8.32;100.00;99598.62;1738758;82;21072;-68
2023/04/06 02:30:16;;;;;;;18.05;9.73;;;;;;;8.34;100.00;99596.56;1738563;82;21054;-67
2023/04/06 02:32:46;;;;;;;18.60;10.58;;;;;;;8.35;100.00;99601.50;1738363;82;21053;-67
2023/04/06 02:35:15;;;;;;;14.30;9.20;;;;;;;8.38;100.00;99597.84;1738602;82;21554;-69
2023/04/06 02:37:46;;;;;;;14.95;9.00;;;;;;;8.40;100.00;99599.84;1738466;82;21408;-68
2023/04/06 02:40:15;;;;;;;17.30;9.98;;;;;;;8.40;100.00;99596.27;1738836;82;21152;-66
2023/04/06 02:42:45;;;;;;;14.65;9.30;;;;;;;8.41;100.00;99599.32;1741045;82;21680;-68
2023/04/06 02:45:15;;;;;;;19.37;10.43;;;;;;;8.42;100.00;99600.48;1741098;82;21068;-69
2023/04/06 02:47:47;;;;;;;16.75;9.28;;;;;;;8.45;100.00;99607.42;1740927;82;21069;-68
2023/04/06 02:50:17;;;;;;;16.95;9.40;;;;;;;8.44;100.00;99601.12;1741895;82;21048;-69
2023/04/06 02:52:48;;;;;;;15.95;9.55;;;;;;;8.47;100.00;99614.91;1740626;82;21025;-69
2023/04/06 02:55:17;;;;;;;16.02;9.30;;;;;;;8.47;100.00;99613.55;1741246;82;21112;-68
2023/04/06 02:57:49;;;;;;;18.10;10.38;;;;;;;8.47;100.00;99610.30;1741504;82;21037;-64
2023/04/06 03:00:20;;;;;;;18.25;9.95;;;;;;;8.48;100.00;99611.98;1720522;82;21065;-68
2023/04/06 03:02:51;;;;;;;16.40;9.48;;;;;;;8.48;100.00;99602.42;1741015;81;21041;-65
2023/04/06 03:05:20;;;;;;;15.95;8.68;;;;;;;8.49;100.00;99598.65;1741358;82;21084;-66
2023/04/06 03:07:52;;;;;;;17.80;8.78;;;;;;;8.51;100.00;99595.20;1720291;82;21033;-67
2023/04/06 03:10:24;;;;;;;17.55;9.60;;;;;;;8.50;100.00;99591.30;1686786;85;21035;-67
2023/04/06 03:12:53;;;;;;;18.30;9.68;;;;;;;8.50;100.00;99592.14;1685761;85;21102;-66
2023/04/06 03:15:27;;;;;;;15.00;9.05;;;;;;;8.51;100.00;99603.91;1685664;85;21047;-67
2023/04/06 03:17:59;;;;;;;16.37;9.40;;;;;;;8.54;100.00;99599.41;1685802;85;21058;-66
2023/04/06 03:20:37;;;;;;;15.40;9.03;;;;;;;8.54;100.00;99611.17;1686993;85;21171;-66
2023/04/06 03:23:07;;;;;;;16.97;9.23;;;;;;;8.54;100.00;99595.31;1686730;85;21086;-65
2023/04/06 03:25:39;;;;;;;17.35;9.20;;;;;;;8.57;100.00;99601.20;1687048;85;21717;-68
2023/04/06 03:28:10;;;;;;;17.10;9.38;;;;;;;8.61;100.00;99606.25;1705119;82;21049;-65
2023/04/06 03:30:41;;;;;;;19.57;10.08;;;;;;;8.61;100.00;99601.63;1740252;82;21054;-66
2023/04/06 03:33:10;;;;;;;16.15;9.20;;;;;;;8.63;100.00;99595.97;1740799;82;21399;-68
2023/04/06 03:35:41;;;;;;;15.40;8.70;;;;;;;8.64;100.00;99601.75;1741434;82;21096;-66
2023/04/06 03:38:13;;;;;;;16.20;8.85;;;;;;;8.64;100.00;99608.05;1720414;82;21468;-67
2023/04/06 03:40:42;;;;;;;15.05;8.28;;;;;;;8.64;100.00;99601.75;1740745;82;21037;-65
2023/04/06 03:43:11;;;;;;;17.07;9.35;;;;;;;8.62;100.00;99601.95;1738235;82;21073;-65
2023/04/06 03:45:40;;;;;;;18.32;9.10;;;;;;;8.62;100.00;99601.11;1738650;82;21005;-66
2023/04/06 03:48:10;;;;;;;17.30;9.48;;;;;;;8.63;100.00;99605.52;1738229;82;21028;-66
2023/04/06 03:50:41;;;;;;;15.15;9.43;;;;;;;8.62;100.00;99607.94;1738594;82;21021;-65
2023/04/06 03:53:11;;;;;;;15.48;8.78;;;;;;;8.62;100.00;99603.84;1738231;82;20981;-65
2023/04/06 03:55:42;;;;;;;16.73;9.65;;;;;;;8.62;100.00;99605.20;1738823;82;21076;-65
2023/04/06 03:58:12;;;;;;;15.13;9.65;;;;;;;8.63;100.00;99599.54;1684600;85;21177;-66
2023/04/06 04:00:43;;;;;;;16.10;9.03;;;;;;;8.65;100.00;99611.63;1629907;88;21515;-68
2023/04/06 04:03:15;;;;;;;16.35;9.35;;;;;;;8.63;100.00;99605.52;1629749;88;21514;-66
2023/04/06 04:05:44;;;;;;;13.88;8.63;;;;;;;8.64;100.00;99615.40;1630249;88;21054;-66
2023/04/06 04:08:15;;;;;;;18.27;9.45;;;;;;;8.66;100.00;99613.31;1630490;88;21070;-68
2023/04/06 04:10:45;;;;;;;16.35;9.28;;;;;;;8.66;100.00;99616.04;1630040;88;21095;-68
2023/04/06 04:13:14;;;;;;;15.40;9.08;;;;;;;8.68;100.00;99618.04;1629797;88;21107;-66
2023/04/06 04:15:47;;;;;;;20.12;11.03;;;;;;;8.69;100.00;99619.20;1643392;85;21063;-67
2023/04/06 04:18:17;;;;;;;17.10;8.95;;;;;;;8.72;100.00;99621.52;1698027;82;21098;-64
2023/04/06 04:20:46;;;;;;;18.30;9.40;;;;;;;8.74;100.00;99617.22;1738784;82;21025;-67
2023/04/06 04:23:15;;;;;;;16.10;9.68;;;;;;;8.75;100.00;99624.37;1738680;82;21017;-68
2023/04/06 04:25:45;;;;;;;15.35;8.83;;;;;;;8.77;100.00;99626.38;1738463;82;21021;-66
2023/04/06 04:28:14;;;;;;;15.93;9.98;;;;;;;8.78;100.00;99621.23;1738819;82;21099;-65
2023/04/06 04:30:46;;;;;;;16.60;9.20;;;;;;;8.80;100.00;99624.59;1738516;81;21076;-67
2023/04/06 04:33:15;;;;;;;14.58;9.30;;;;;;;8.81;100.00;99624.91;1738443;82;21502;-67
2023/04/06 04:35:44;;;;;;;16.80;8.60;;;;;;;8.84;100.00;99617.67;1738021;82;21073;-65
2023/04/06 04:38:16;;;;;;;14.70;9.03;;;;;;;8.85;100.00;99628.39;1738273;82;21434;-66
2023/04/06 04:40:48;;;;;;;19.00;10.50;;;;;;;8.88;100.00;99625.77;1738152;82;21527;-67
2023/04/06 04:43:19;;;;;;;16.80;12.20;;;;;;;8.88;100.00;99624.41;1738298;82;21065;-66
2023/04/06 04:45:49;;;;;;;16.40;9.78;;;;;;;8.88;100.00;99625.77;1738700;82;21041;-66
2023/04/06 04:48:20;;;;;;;16.80;9.55;;;;;;;8.88;100.00;99632.08;1737946;82;21025;-66
2023/04/06 04:50:55;;;;;;;17.80;9.23;;;;;;;8.91;100.00;99634.92;1738796;82;21084;-67
2023/04/06 04:53:26;;;;;;;16.62;8.78;;;;;;;8.90;100.00;99631.88;1739124;82;21505;-65
2023/04/06 04:56:00;;;;;;;17.42;9.53;;;;;;;8.91;100.00;99639.02;1741049;82;21064;-66
2023/04/06 04:58:31;;;;;;;16.67;8.93;;;;;;;8.92;100.00;99635.24;1741458;82;21105;-66
2023/04/06 05:01:00;;;;;;;15.15;9.20;;;;;;;8.95;100.00;99641.66;1741547;82;21021;-66
2023/04/06 05:03:32;;;;;;;17.07;9.25;;;;;;;8.97;100.00;99641.45;1722000;82;21029;-67
2023/04/06 05:06:05;;;;;;;14.90;8.68;;;;;;;8.98;100.00;99648.08;1740119;82;21081;-67
2023/04/06 05:08:36;;;;;;;13.88;9.03;;;;;;;8.99;100.00;99645.66;1738926;82;21053;-67
2023/04/06 05:11:05;;;;;;;13.95;8.78;;;;;;;9.01;100.00;99635.37;1738668;82;21124;-66
2023/04/06 05:13:38;;;;;;;18.07;9.33;;;;;;;9.00;100.00;99633.69;1738663;81;21457;-66
2023/04/06 05:16:12;;;;;;;15.05;8.15;;;;;;;9.01;100.00;99634.00;1737978;82;21402;-66
2023/04/06 05:18:41;;;;;;;14.58;8.48;;;;;;;9.03;100.00;99631.91;1738607;82;21100;-66
2023/04/06 05:21:11;;;;;;;26.20;13.85;;;;;;;9.05;100.00;99639.38;1738381;82;21025;-66
2023/04/06 05:23:42;;;;;;;13.53;8.73;;;;;;;9.08;100.00;99646.31;1736817;82;21038;-66
2023/04/06 05:26:12;;;;;;;22.10;9.18;;;;;;;9.12;100.00;99647.62;1738459;82;21049;-64
2023/04/06 05:28:44;;;;;;;16.55;8.83;;;;;;;9.15;100.00;99643.11;1738480;82;21033;-65
2023/04/06 05:31:16;;;;;;;15.25;9.20;;;;;;;9.16;100.00;99642.90;1738349;82;21084;-67
2023/04/06 05:33:51;;;;;;;18.32;9.40;;;;;;;9.21;100.00;99640.38;1738270;82;21442;-66
2023/04/06 05:36:21;;;;;;;16.45;9.13;;;;;;;9.23;100.00;99642.91;1737146;82;21057;-65
2023/04/06 05:38:52;;;;;;;14.90;8.50;;;;;;;9.26;100.00;99627.98;1738910;82;20998;-67
2023/04/06 05:41:26;;;;;;;16.45;9.25;;;;;;;9.29;100.00;99634.41;1737032;82;21038;-64
2023/04/06 05:43:55;;;;;;;15.50;8.35;;;;;;;9.32;100.00;99648.50;1738362;82;21022;-67
2023/04/06 05:46:25;;;;;;;13.95;8.85;;;;;;;9.34;100.00;99635.46;1738667;82;21482;-65
2023/04/06 05:48:56;;;;;;;15.72;8.43;;;;;;;9.36;100.00;99643.45;1738578;82;21065;-65
2023/04/06 05:51:28;;;;;;;17.27;8.98;;;;;;;9.38;100.00;99641.36;1738604;82;21131;-66
2023/04/06 05:53:59;;;;;;;15.95;8.95;;;;;;;9.41;100.00;99634.95;1738455;82;21068;-66
2023/04/06 05:56:30;;;;;;;16.32;10.38;;;;;;;9.44;100.00;99637.78;1717790;82;21038;-64
2023/04/06 05:58:59;;;;;;;16.73;10.38;;;;;;;9.48;100.00;99639.05;1738329;82;20989;-67
2023/04/06 06:01:31;;;;;;;18.37;10.00;;;;;;;9.52;100.00;99640.31;1738371;82;21069;-66
2023/04/06 06:04:02;;;;;;;18.30;9.98;;;;;;;9.55;100.00;99645.36;1738290;82;21426;-65
2023/04/06 06:06:33;;;;;;;13.65;9.13;;;;;;;9.57;100.00;99644.63;1738875;82;21022;-64
2023/04/06 06:09:04;;;;;;;16.60;10.18;;;;;;;9.58;100.00;99649.05;1737580;82;21022;-66
2023/04/06 06:11:37;;;;;;;20.97;12.28;;;;;;;9.61;100.00;99651.36;1684731;85;21087;-65
2023/04/06 06:14:07;;;;;;;18.87;11.70;;;;;;;9.65;100.00;99653.16;1684445;85;21482;-66
2023/04/06 06:16:37;;;;;;;17.60;11.22;;;;;;;9.68;100.00;99655.47;1683693;85;21087;-65
2023/04/06 06:19:09;;;;;;;19.95;11.53;;;;;;;9.71;100.00;99649.58;1684282;85;21520;-66
2023/04/06 06:21:38;;;;;;;21.60;12.45;;;;;;;9.73;100.00;99638.73;1661887;85;21067;-67
2023/04/06 06:24:09;;;;;;;25.37;13.32;;;;;;;9.79;100.00;99644.77;1593136;89;21072;-65
2023/04/06 06:26:39;;;;;;;20.02;11.68;;;;;;;9.85;100.00;99645.28;1593548;90;21225;-66
2023/04/06 06:29:11;;;;;;;23.65;13.22;;;;;;;9.90;100.00;99643.81;1607522;87;21083;-67
2023/04/06 06:31:42;;;;;;;23.05;13.08;;;;;;;9.96;100.00;99641.06;1646885;87;21072;-66
2023/04/06 06:34:12;;;;;;;22.60;13.28;;;;;;;10.01;100.00;99654.95;1647073;87;21099;-67
2023/04/06 06:36:46;;;;;;;21.30;12.50;;;;;;;10.06;100.00;99647.47;1646896;87;21032;-66
2023/04/06 06:39:17;;;;;;;23.15;13.32;;;;;;;10.11;99.84;99643.56;1646969;87;21115;-65
2023/04/06 06:41:48;;;;;;;23.02;13.83;;;;;;;10.16;99.50;99647.34;1661799;84;21059;-63
2023/04/06 06:44:18;;;;;;;25.57;14.87;;;;;;;10.25;99.28;99644.41;1708212;82;21048;-67
2023/04/06 06:46:48;;;;;;;20.88;12.63;;;;;;;10.29;98.96;99639.66;1741116;81;21503;-66
2023/04/06 06:49:19;;;;;;;24.60;13.62;;;;;;;10.33;98.60;99648.29;1722446;82;21477;-67
2023/04/06 06:51:48;;;;;;;23.77;12.85;;;;;;;10.39;98.26;99644.69;1741305;82;21072;-68
2023/04/06 06:54:18;;;;;;;21.65;12.90;;;;;;;10.43;97.62;99648.72;1741093;82;21742;-65
2023/04/06 06:56:47;;;;;;;20.32;11.95;;;;;;;10.47;97.30;99645.33;1741139;81;21045;-66
2023/04/06 06:59:16;;;;;;;26.80;12.68;;;;;;;10.52;97.03;99647.95;1741071;82;21025;-63
2023/04/06 07:01:45;;;;;;;18.30;11.10;;;;;;;10.56;96.29;99651.94;1741275;82;21061;-67
2023/04/06 07:04:16;;;;;;;20.45;11.55;;;;;;;10.62;96.05;99648.33;1741142;81;21060;-67
2023/04/06 07:06:46;;;;;;;19.17;9.50;;;;;;;10.67;95.59;99654.00;1741107;82;21022;-66
2023/04/06 07:09:15;;;;;;;15.28;9.10;;;;;;;10.72;95.13;99655.04;1740528;82;21056;-66
2023/04/06 07:11:44;;;;;;;14.75;8.38;;;;;;;10.77;94.12;99648.91;1741120;82;21072;-66
2023/04/06 07:14:16;;;;;;;16.25;9.33;;;;;;;10.82;93.16;99652.36;1687237;84;21107;-67
2023/04/06 07:16:46;;;;;;;15.85;8.48;;;;;;;10.87;92.70;99647.06;1687162;84;21102;-66
2023/04/06 07:19:17;;;;;;;17.30;8.35;;;;;;;10.90;92.55;99644.73;1687146;84;21019;-65
2023/04/06 07:21:46;;;;;;;14.45;8.08;;;;;;;10.91;92.04;99645.05;1687107;85;21067;-67
2023/04/06 07:24:15;;;;;;;16.62;8.58;;;;;;;10.91;91.94;99660.12;1687039;85;21129;-67
2023/04/06 07:26:44;;;;;;;14.43;7.83;;;;;;;10.91;91.77;99658.75;1687195;85;21102;-65
2023/04/06 07:29:13;;;;;;;15.98;9.30;;;;;;;10.93;91.82;99658.00;1686961;84;21064;-65
2023/04/06 07:31:42;;;;;;;22.77;10.78;;;;;;;10.96;91.69;99648.50;1686940;85;21533;-66
2023/04/06 07:34:12;;;;;;;20.45;10.85;;;;;;;10.98;91.44;99642.27;1687237;84;21078;-66
2023/04/06 07:36:42;;;;;;;24.47;11.57;;;;;;;11.00;91.65;99648.38;1603564;89;21118;-65
2023/04/06 07:39:11;;;;;;;19.98;10.58;;;;;;;11.01;91.64;99644.57;1636090;86;21095;-66
2023/04/06 07:41:41;;;;;;;21.02;11.08;;;;;;;11.03;91.70;99641.92;1656097;86;21091;-65
2023/04/06 07:44:10;;;;;;;19.42;11.05;;;;;;;11.06;91.73;99653.01;1651912;87;21115;-67
2023/04/06 07:46:40;;;;;;;19.70;11.80;;;;;;;11.09;91.84;99653.41;1652197;87;21091;-68
2023/04/06 07:49:10;;;;;;;20.37;10.68;;;;;;;11.15;91.93;99659.08;1651609;87;21028;-67
2023/04/06 07:51:40;;;;;;;19.30;11.15;;;;;;;11.18;92.04;99657.27;1649776;85;21047;-66
2023/04/06 07:54:10;;;;;;;22.80;11.50;;;;;;;11.22;91.95;99654.39;1670550;82;22039;-68
2023/04/06 07:56:38;;;;;;;19.25;12.00;;;;;;;11.24;91.93;99658.59;1740709;81;21041;-67
2023/04/06 07:59:08;;;;;;;21.62;11.53;;;;;;;11.27;91.87;99663.64;1733514;83;21077;-60
2023/04/06 08:01:37;;;;;;;19.75;10.72;;;;;;;11.30;91.96;99667.84;1739145;82;21509;-68
2023/04/06 08:04:07;;;;;;;17.55;8.70;;;;;;;11.32;91.88;99669.30;1743056;81;21071;-68
2023/04/06 08:06:37;;;;;;;19.07;8.43;;;;;;;11.33;91.37;99661.92;1744414;81;21063;-69
2023/04/06 08:09:08;;;;;;;19.90;9.75;;;;;;;11.35;91.20;99668.87;1752479;81;21043;-70
2023/04/06 08:11:38;;;;;;;19.32;10.18;;;;;;;11.37;91.13;99666.74;1763981;81;21016;-70
2023/04/06 08:14:07;;;;;;;19.75;9.40;;;;;;;11.42;91.25;99668.29;1763953;81;21059;-69
2023/04/06 08:16:38;;;;;;;15.23;9.10;;;;;;;11.47;91.45;99668.16;1764123;81;21012;-67
2023/04/06 08:19:09;;;;;;;16.00;9.15;;;;;;;11.54;91.67;99668.42;1763988;81;21040;-67
2023/04/06 08:21:39;;;;;;;16.23;9.65;;;;;;;11.62;91.72;99661.29;1763900;81;21008;-75
2023/04/06 08:24:08;;;;;;;17.57;8.48;;;;;;;11.69;91.64;99663.98;1764162;81;21036;-74
2023/04/06 08:26:39;;;;;;;12.47;8.55;;;;;;;11.74;91.11;99659.53;1750900;81;21064;-75
2023/04/06 08:29:09;;;;;;;12.85;7.90;;;;;;;11.77;90.71;99672.50;1744061;82;21012;-69
2023/04/06 08:31:39;;;;;;;15.80;8.55;;;;;;;11.78;90.09;99664.61;1744751;81;21030;-68
2023/04/06 08:34:08;;;;;;;16.15;8.68;;;;;;;11.80;89.72;99674.83;1745264;82;20988;-69
2023/04/06 08:36:41;;;;;;;16.90;8.08;;;;;;;11.80;89.59;99664.69;1746842;81;21036;-66
2023/04/06 08:39:10;;;;;;;14.47;8.13;;;;;;;11.81;89.12;99654.56;1738858;82;21012;-67
2023/04/06 08:41:44;;;;;;;17.92;8.58;;;;;;;11.83;89.06;99667.52;1747106;82;21036;-70
2023/04/06 08:44:15;;;;;;;14.80;7.08;;;;;;;11.83;89.12;99664.78;1705687;83;21091;-66
2023/04/06 08:46:44;;;;;;;13.43;8.13;;;;;;;11.84;88.67;99663.72;1681338;84;21471;-67
2023/04/06 08:49:14;;;;;;;14.50;6.95;;;;;;;11.83;88.71;99660.13;1703897;84;21083;-69
2023/04/06 08:51:43;;;;;;;13.35;7.28;;;;;;;11.84;89.03;99659.06;1684325;84;21470;-66
2023/04/06 08:54:12;;;;;;;19.00;8.08;;;;;;;11.85;89.02;99658.53;1684425;85;21050;-66
2023/04/06 08:56:42;;;;;;;15.58;7.40;;;;;;;11.85;88.96;99664.02;1684451;85;21564;-69
2023/04/06 08:59:11;;;;;;;13.28;7.40;;;;;;;11.86;88.43;99662.42;1684588;84;21080;-70
2023/04/06 09:01:41;;;;;;;14.95;6.95;;;;;;;11.87;88.43;99658.62;1706999;82;21060;-68
2023/04/06 09:04:11;;;;;;;16.25;7.37;;;;;;;11.86;88.57;99654.19;1740854;81;21048;-69
2023/04/06 09:06:42;;;;;;;11.30;7.10;;;;;;;11.87;88.79;99663.27;1741019;82;20985;-68
2023/04/06 09:09:11;;;;;;;17.73;7.30;;;;;;;11.89;89.11;99661.14;1730394;82;21016;-69
2023/04/06 09:11:49;;;;;;;16.85;7.78;;;;;;;11.91;89.25;99661.75;1740774;82;21012;-68
2023/04/06 09:14:37;;;;;;;15.75;7.05;;;;;;;11.91;89.34;99668.62;1740741;81;21401;-70
2023/04/06 09:17:10;;;;;;;14.90;7.42;;;;;;;11.93;89.54;99677.47;1740898;81;21048;-69
2023/04/06 09:19:47;;;;;;;14.20;6.62;;;;;;;11.92;89.42;99668.92;1740776;81;21004;-69
2023/04/06 09:22:17;;;;;;;13.70;6.62;;;;;;;11.92;89.47;99674.41;1740846;82;21047;-67
2023/04/06 09:24:52;;;;;;;14.50;6.90;;;;;;;11.91;89.51;99680.97;1729768;82;21032;-68
2023/04/06 09:27:35;;;;;;;9.68;6.80;;;;;;;11.90;89.62;99679.28;1729216;82;21007;-68
2023/04/06 09:30:12;;;;;;;12.63;6.53;;;;;;;11.90;89.76;99677.92;1729607;82;21016;-68
2023/04/06 09:32:49;;;;;;;12.60;5.83;;;;;;;11.89;89.96;99672.95;1730708;82;21421;-69
2023/04/06 09:35:22;;;;;;;13.03;7.50;;;;;;;11.90;90.25;99676.55;1730619;82;21060;-69
2023/04/06 09:37:54;;;;;;;17.10;7.22;;;;;;;11.88;90.48;99682.26;1643000;87;21548;-68
2023/04/06 09:40:24;;;;;;;14.68;6.62;;;;;;;11.89;90.80;99687.22;1643161;87;21118;-71
2023/04/06 09:42:54;;;;;;;15.15;7.28;;;;;;;11.88;91.11;99693.23;1589673;89;21165;-73
2023/04/06 09:45:23;;;;;;;14.93;7.28;;;;;;;11.85;91.69;99701.08;1590061;90;21484;-72
2023/04/06 09:47:56;;;;;;;17.45;8.15;;;;;;;11.81;92.46;99706.17;1576934;90;21076;-72
2023/04/06 09:50:25;;;;;;;15.00;7.05;;;;;;;11.77;93.41;99717.79;1634463;87;22141;-73
2023/04/06 09:52:55;;;;;;;14.30;6.80;;;;;;;11.69;94.31;99711.47;1575149;91;21540;-73
2023/04/06 09:55:29;;;;;;;18.32;7.85;;;;;;;11.62;95.14;99709.30;1648749;87;21089;-72
2023/04/06 09:58:04;;;;;;;12.58;7.80;;;;;;;11.59;95.87;99703.42;1650442;87;21039;-73
2023/04/06 10:00:50;;;;;;;18.37;8.65;;;;;;;11.55;96.61;99711.25;1648494;87;21080;-73
2023/04/06 10:03:52;;;;;;;13.18;7.53;;;;;;;11.49;97.39;99713.52;1538047;92;21095;-73
2023/04/06 10:06:23;;;;;;;20.27;9.30;;;;;;;11.46;98.70;99726.30;1523083;94;21157;-77
2023/04/06 10:08:54;;;;;;;18.20;11.00;;;;;;;11.40;100.00;99721.69;1611956;86;21063;-77
2023/04/06 10:11:25;;;;;;;20.70;9.65;;;;;;;11.33;100.00;99720.35;1660168;86;21032;-72
2023/04/06 10:13:54;;;;;;;18.50;10.68;;;;;;;11.27;100.00;99719.86;1656378;86;21387;-72
2023/04/06 10:16:24;;;;;;;21.48;12.73;;;;;;;11.23;100.00;99723.26;1633571;87;21099;-75
2023/04/06 10:19:00;;;;;;;20.10;10.43;;;;;;;11.19;100.00;99722.02;1654766;86;22023;-76
2023/04/06 10:21:30;;;;;;;19.23;11.08;;;;;;;11.16;100.00;99719.18;1694205;82;20971;-75
2023/04/06 10:24:02;;;;;;;19.05;11.83;;;;;;;11.13;100.00;99726.47;1737988;82;20987;-72
2023/04/06 10:26:31;;;;;;;19.48;11.85;;;;;;;11.10;100.00;99726.91;1737885;82;20999;-77
2023/04/06 10:29:05;;;;;;;21.55;12.78;;;;;;;11.06;100.00;99729.23;1737618;82;21018;-73
2023/04/06 10:31:40;;;;;;;19.37;13.18;;;;;;;11.03;100.00;99728.27;1738174;82;20995;-69
2023/04/06 10:34:09;;;;;;;21.42;13.00;;;;;;;11.03;100.00;99725.53;1738465;82;20983;-72
2023/04/06 10:36:40;;;;;;;23.57;14.83;;;;;;;10.99;100.00;99735.78;1738514;81;21034;-69
2023/04/06 10:39:09;;;;;;;19.52;14.23;;;;;;;10.98;100.00;99736.30;1738131;82;20999;-71
2023/04/06 10:41:44;;;;;;;22.20;14.50;;;;;;;10.98;100.00;99745.05;1738278;82;20994;-69
2023/04/06 10:44:25;;;;;;;21.77;13.75;;;;;;;10.96;100.00;99738.42;1738124;82;21493;-71
2023/04/06 10:47:01;;;;;;;21.77;13.55;;;;;;;10.97;100.00;99740.10;1738126;82;21034;-69
2023/04/06 10:49:30;;;;;;;;;;;;;;;10.98;100.00;99747.80;1740932;82;21018;-69
2023/04/06 10:52:00;;;;;;;19.50;11.48;;;;;;;11.02;100.00;99743.03;1737741;82;20170;-70
2023/04/06 10:54:29;;;;;;;18.40;11.12;;;;;;;11.03;100.00;99746.62;1738412;82;21082;-68
2023/04/06 10:56:59;;;;;;;17.90;10.53;;;;;;;11.03;100.00;99747.45;1737499;82;21071;-70
2023/04/06 10:59:29;;;;;;;16.17;9.90;;;;;;;11.07;100.00;99748.74;1737019;82;21317;-70
2023/04/06 11:01:59;;;;;;;18.42;11.22;;;;;;;11.08;100.00;99751.80;1731277;82;20981;-66
2023/04/06 11:04:30;;;;;;;16.90;10.93;;;;;;;11.09;100.00;99751.27;1710778;84;21400;-71
2023/04/06 11:07:02;;;;;;;16.73;11.10;;;;;;;11.11;100.00;99752.73;1674320;85;21055;-70
2023/04/06 11:09:33;;;;;;;18.00;12.40;;;;;;;11.13;100.00;99758.00;1674507;86;21036;-69
2023/04/06 11:12:02;;;;;;;19.62;12.28;;;;;;;11.14;100.00;99751.45;1674354;85;21563;-71
2023/04/06 11:14:32;;;;;;;21.85;13.83;;;;;;;11.15;100.00;99760.52;1674493;86;21091;-69
2023/04/06 11:17:01;;;;;;;23.30;15.03;;;;;;;11.17;100.00;99761.14;1674955;85;21133;-72
2023/04/06 11:19:33;;;;;;;23.85;14.85;;;;;;;11.18;100.00;99765.57;1674775;85;21008;-69
2023/04/06 11:22:08;;;;;;;25.90;16.25;;;;;;;11.17;100.00;99766.10;1674840;85;21016;-69
2023/04/06 11:24:37;;;;;;;29.85;18.52;;;;;;;11.20;100.00;99778.00;1689143;83;21460;-67
2023/04/06 11:27:07;;;;;;;27.73;16.57;;;;;;;11.19;100.00;99772.20;1711235;84;21463;-67
2023/04/06 11:29:37;;;;;;;24.55;15.88;;;;;;;11.19;100.00;99770.84;1730267;82;21518;-68
2023/04/06 11:32:08;;;;;;;27.82;16.62;;;;;;;11.20;100.00;99774.42;1700486;84;21032;-67
2023/04/06 11:34:39;;;;;;;30.85;18.10;;;;;;;11.22;100.00;99780.00;1710827;83;21028;-69
2023/04/06 11:37:11;;;;;;;31.80;18.57;;;;;;;11.24;100.00;99779.25;1709120;83;21020;-69
2023/04/06 11:39:52;;;;;;;32.98;19.45;;;;;;;11.26;100.00;99778.51;1717915;83;21485;-70